Time;durP1;ratioP1;P1;durP2;ratioP2;P2;SDS_P1;SDS_P2;PMS_P1;PMS_P2;Temp;Humidity;BMP_temperature;BMP_pressure;BME280_temperature;BME280_humidity;BME280_pressure;Samples;Min_cycle;Max_cycle;Signal;HPM_P1;HPM_P2
2019/11/01 00:01:11;;;;;;;105.2;66.3;;;;;;;;;;;;;
2019/11/01 00:03:35;;;;;;;110;66.8;;;;;;;;;;;;;
2019/11/01 00:06:00;;;;;;;113.3;67.3;;;;;;;;;;;;;
2019/11/01 00:08:25;;;;;;;108.4;65.6;;;;;;;;;;;;;
2019/11/01 00:10:50;;;;;;;103.8;64.2;;;;;;;;;;;;;
2019/11/01 00:13:15;;;;;;;107.7;65.7;;;;;;;;;;;;;
2019/11/01 00:15:40;;;;;;;105.4;62.6;;;;;;;;;;;;;
2019/11/01 00:18:05;;;;;;;104.4;63.2;;;;;;;;;;;;;
2019/11/01 00:20:30;;;;;;;101.4;62.3;;;;;;;;;;;;;
2019/11/01 00:22:55;;;;;;;100;61.7;;;;;;;;;;;;;
2019/11/01 00:25:20;;;;;;;104;62.1;;;;;;;;;;;;;
2019/11/01 00:27:46;;;;;;;86.4;56;;;;;;;;;;;;;
2019/11/01 00:31:48;;;;;;;84.8;55;;;;;;;;;;;;;
2019/11/01 00:34:13;;;;;;;85.3;55.5;;;;;;;;;;;;;
2019/11/01 00:36:38;;;;;;;95.8;59.3;;;;;;;;;;;;;
2019/11/01 00:39:03;;;;;;;86.7;55.5;;;;;;;;;;;;;
2019/11/01 00:41:28;;;;;;;83.7;53.9;;;;;;;;;;;;;
2019/11/01 00:43:53;;;;;;;80.1;52.7;;;;;;;;;;;;;
2019/11/01 00:46:18;;;;;;;83.1;54.5;;;;;;;;;;;;;
2019/11/01 00:48:43;;;;;;;85.2;54.1;;;;;;;;;;;;;
2019/11/01 00:51:08;;;;;;;82.9;54;;;;;;;;;;;;;
2019/11/01 00:53:33;;;;;;;81.7;54;;;;;;;;;;;;;
2019/11/01 00:55:59;;;;;;;81.8;54.4;;;;;;;;;;;;;
2019/11/01 00:58:24;;;;;;;81.7;54.3;;;;;;;;;;;;;
2019/11/01 01:00:49;;;;;;;80.1;54.2;;;;;;;;;;;;;
2019/11/01 01:03:14;;;;;;;85.6;54.6;;;;;;;;;;;;;
2019/11/01 01:05:39;;;;;;;78.8;52.5;;;;;;;;;;;;;
2019/11/01 01:08:04;;;;;;;83.8;54.8;;;;;;;;;;;;;
2019/11/01 01:10:29;;;;;;;84.5;55.4;;;;;;;;;;;;;
2019/11/01 01:12:54;;;;;;;80.2;53.7;;;;;;;;;;;;;
2019/11/01 01:15:19;;;;;;;78.6;53.3;;;;;;;;;;;;;
2019/11/01 01:17:45;;;;;;;72.8;50.6;;;;;;;;;;;;;
2019/11/01 01:20:10;;;;;;;78.9;52.4;;;;;;;;;;;;;
2019/11/01 01:22:35;;;;;;;74.8;51.1;;;;;;;;;;;;;
2019/11/01 01:25:23;;;;;;;75.6;51.3;;;;;;;;;;;;;
2019/11/01 01:27:37;;;;;;;70.5;50;;;;;;;;;;;;;
2019/11/01 01:29:50;;;;;;;72.1;50.5;;;;;;;;;;;;;
2019/11/01 01:32:15;;;;;;;69;49.1;;;;;;;;;;;;;
2019/11/01 01:34:40;;;;;;;72;50.6;;;;;;;;;;;;;
2019/11/01 01:37:05;;;;;;;75.6;51.6;;;;;;;;;;;;;
2019/11/01 01:39:33;;;;;;;74.2;51.6;;;;;;;;;;;;;
2019/11/01 01:41:55;;;;;;;75.1;51.3;;;;;;;;;;;;;
2019/11/01 01:44:20;;;;;;;79.2;52.1;;;;;;;;;;;;;
2019/11/01 01:47:10;;;;;;;78.6;52.8;;;;;;;;;;;;;
2019/11/01 01:49:35;;;;;;;79.1;52.8;;;;;;;;;;;;;
2019/11/01 01:52:00;;;;;;;79.4;53.3;;;;;;;;;;;;;
2019/11/01 01:54:25;;;;;;;79.7;53.1;;;;;;;;;;;;;
2019/11/01 01:56:50;;;;;;;75.8;52;;;;;;;;;;;;;
2019/11/01 01:59:15;;;;;;;79.5;53;;;;;;;;;;;;;
2019/11/01 02:01:40;;;;;;;80.1;53.1;;;;;;;;;;;;;
2019/11/01 02:04:06;;;;;;;80.8;53;;;;;;;;;;;;;
2019/11/01 02:06:31;;;;;;;84.1;55.2;;;;;;;;;;;;;
2019/11/01 02:08:56;;;;;;;76;52;;;;;;;;;;;;;
2019/11/01 02:11:21;;;;;;;77.8;52.2;;;;;;;;;;;;;
2019/11/01 02:13:46;;;;;;;68.3;49.3;;;;;;;;;;;;;
2019/11/01 02:16:11;;;;;;;72.9;51.4;;;;;;;;;;;;;
2019/11/01 02:18:36;;;;;;;68.3;48.5;;;;;;;;;;;;;
2019/11/01 02:21:01;;;;;;;67.7;48.2;;;;;;;;;;;;;
2019/11/01 02:23:31;;;;;;;72.8;50.8;;;;;;;;;;;;;
2019/11/01 02:25:54;;;;;;;71.4;49.7;;;;;;;;;;;;;
2019/11/01 03:43:26;;;;;;;66.2;45.6;;;;;;;;;;;;;
2019/11/01 03:45:51;;;;;;;49.3;36.2;;;;;;;;;;;;;
2019/11/01 03:48:16;;;;;;;52.4;36.2;;;;;;;;;;;;;
2019/11/01 03:50:41;;;;;;;49.3;36.3;;;;;;;;;;;;;
2019/11/01 03:53:06;;;;;;;45.1;34.6;;;;;;;;;;;;;
2019/11/01 03:55:31;;;;;;;45.4;33.6;;;;;;;;;;;;;
2019/11/01 03:57:56;;;;;;;44.5;32.9;;;;;;;;;;;;;
2019/11/01 04:02:31;;;;;;;39.6;30.9;;;;;;;4.5;100;961.2422;;;;
2019/11/01 04:05:09;;;;;;;42.1;32.5;;;;;;;4.51;100;961.245;;;;
2019/11/01 04:07:21;;;;;;;43.4;33;;;;;;;4.43;100;961.1934;;;;
2019/11/01 04:09:46;;;;;;;45.1;33.6;;;;;;;4.36;100;961.14;;;;
2019/11/01 04:12:11;;;;;;;42.3;32.4;;;;;;;4.36;100;961.1303;;;;
2019/11/01 04:14:36;;;;;;;45.9;34.1;;;;;;;4.35;100;961.1057;;;;
2019/11/01 04:17:01;;;;;;;44;32.9;;;;;;;4.49;100;961.0496;;;;
2019/11/01 04:19:26;;;;;;;49.8;34.8;;;;;;;4.28;100;961.0883;;;;
2019/11/01 04:21:51;;;;;;;46;34.6;;;;;;;4.52;100;961.1119;;;;
2019/11/01 04:24:17;;;;;;;46.6;34.5;;;;;;;4.37;100;961.0933;;;;
2019/11/01 04:26:42;;;;;;;49.6;35.8;;;;;;;4.39;100;961.0567;;;;
2019/11/01 04:29:07;;;;;;;49.2;35.7;;;;;;;4.5;100;961.0801;;;;
2019/11/01 04:31:38;;;;;;;51;36;;;;;;;4.47;100;961.0433;;;;
2019/11/01 04:33:57;;;;;;;44.1;33.3;;;;;;;4.64;100;960.9558;;;;
2019/11/01 04:36:22;;;;;;;46.3;33.4;;;;;;;4.55;100;960.9211;;;;
2019/11/01 04:38:47;;;;;;;43.9;33.5;;;;;;;4.7;100;960.8922;;;;
2019/11/01 04:41:12;;;;;;;46.2;34.6;;;;;;;4.61;100;960.8857;;;;
2019/11/01 04:44:13;;;;;;;50.8;35.6;;;;;;;4.72;100;960.8418;;;;
2019/11/01 04:46:38;;;;;;;45.9;33.9;;;;;;;4.74;100;960.7701;;;;
2019/11/01 04:49:03;;;;;;;46.3;34.3;;;;;;;4.63;100;960.7033;;;;
2019/11/01 04:51:28;;;;;;;47.2;34.9;;;;;;;4.55;100;960.6581;;;;
2019/11/01 04:53:59;;;;;;;48.1;34.5;;;;;;;4.71;100;960.6728;;;;
2019/11/01 04:56:24;;;;;;;53.1;36.3;;;;;;;4.46;100;960.6372;;;;
2019/11/01 04:58:49;;;;;;;52.7;36.9;;;;;;;4.44;100;960.6628;;;;
2019/11/01 05:01:14;;;;;;;47;35.7;;;;;;;4.55;100;960.6055;;;;
2019/11/01 05:03:40;;;;;;;49.2;35.1;;;;;;;4.45;100;960.6155;;;;
2019/11/01 05:06:05;;;;;;;52.4;37.4;;;;;;;4.51;100;960.5004;;;;
2019/11/01 05:08:30;;;;;;;50.8;36.8;;;;;;;4.52;100;960.4414;;;;
2019/11/01 05:10:55;;;;;;;48.1;35.6;;;;;;;4.63;100;960.3926;;;;
2019/11/01 05:13:20;;;;;;;50.1;35.7;;;;;;;4.66;100;960.4172;;;;
2019/11/01 05:15:45;;;;;;;49;35.6;;;;;;;4.59;100;960.3716;;;;
2019/11/01 05:18:20;;;;;;;50.4;36.4;;;;;;;4.64;100;960.2696;;;;
2019/11/01 05:20:35;;;;;;;46.4;35.1;;;;;;;4.57;100;960.222;;;;
2019/11/01 05:23:00;;;;;;;52.1;36.7;;;;;;;4.58;100;960.1721;;;;
2019/11/01 05:25:25;;;;;;;53.3;35.5;;;;;;;4.5;100;960.2064;;;;
2019/11/01 05:27:50;;;;;;;50.4;36.4;;;;;;;4.56;100;960.1631;;;;
2019/11/01 05:30:15;;;;;;;50.9;36.3;;;;;;;4.64;100;960.0759;;;;
2019/11/01 05:32:40;;;;;;;51.9;34.9;;;;;;;4.7;100;960.0439;;;;
2019/11/01 05:35:06;;;;;;;49.7;34.8;;;;;;;4.57;100;959.9963;;;;
2019/11/01 05:37:31;;;;;;;58;35.8;;;;;;;4.48;100;960.0164;;;;
2019/11/01 05:39:56;;;;;;;50.4;35.4;;;;;;;4.61;100;959.9125;;;;
2019/11/01 05:42:21;;;;;;;56.2;36.6;;;;;;;4.54;100;959.8506;;;;
2019/11/01 05:44:46;;;;;;;51;35.8;;;;;;;4.56;100;959.8457;;;;
2019/11/01 05:47:11;;;;;;;48.2;33.6;;;;;;;4.64;100;959.851;;;;
2019/11/01 05:49:36;;;;;;;53.3;34.6;;;;;;;4.62;100;959.804;;;;
2019/11/01 05:52:01;;;;;;;47.9;34.3;;;;;;;4.72;100;959.8225;;;;
2019/11/01 05:54:26;;;;;;;47.5;33.9;;;;;;;4.69;100;959.8463;;;;
2019/11/01 05:56:51;;;;;;;52.2;34.6;;;;;;;4.59;100;959.822;;;;
2019/11/01 05:59:16;;;;;;;49.5;35.1;;;;;;;4.64;100;959.8017;;;;
2019/11/01 06:01:42;;;;;;;51.7;33.5;;;;;;;4.61;100;959.7932;;;;
2019/11/01 06:04:07;;;;;;;54.4;34.5;;;;;;;4.61;100;959.7497;;;;
2019/11/01 06:06:32;;;;;;;58.3;37.3;;;;;;;4.68;100;959.7751;;;;
2019/11/01 06:08:57;;;;;;;55.8;35.6;;;;;;;4.67;100;959.8198;;;;
2019/11/01 06:11:22;;;;;;;58.2;36.4;;;;;;;4.61;100;959.7544;;;;
2019/11/01 06:13:47;;;;;;;58.1;36.2;;;;;;;4.61;100;959.7578;;;;
2019/11/01 06:16:12;;;;;;;48.5;33.7;;;;;;;4.84;100;959.7316;;;;
2019/11/01 06:18:37;;;;;;;48.7;32.1;;;;;;;4.84;100;959.7444;;;;
2019/11/01 06:21:02;;;;;;;47.9;29.9;;;;;;;4.84;100;959.7751;;;;
2019/11/01 06:23:27;;;;;;;45.2;30.4;;;;;;;4.91;100;959.741;;;;
2019/11/01 06:25:53;;;;;;;44;30.7;;;;;;;4.82;100;959.6735;;;;
2019/11/01 06:28:18;;;;;;;44;31;;;;;;;4.87;100;959.8441;;;;
2019/11/01 06:30:44;;;;;;;50.3;32.2;;;;;;;4.88;100;959.868;;;;
2019/11/01 06:33:09;;;;;;;41.5;30.7;;;;;;;5.01;100;959.8911;;;;
2019/11/01 06:35:34;;;;;;;42.9;29.8;;;;;;;5.2;100;959.8889;;;;
2019/11/01 06:37:59;;;;;;;38.1;27.6;;;;;;;5.15;100;959.8459;;;;
2019/11/01 06:40:25;;;;;;;38.1;26.7;;;;;;;5.03;100;959.9051;;;;
2019/11/01 06:42:50;;;;;;;40.7;29;;;;;;;5.08;100;959.843;;;;
2019/11/01 06:45:15;;;;;;;49.2;28.2;;;;;;;5.06;100;959.8383;;;;
2019/11/01 06:47:41;;;;;;;42.1;28.9;;;;;;;5.09;100;959.8372;;;;
2019/11/01 06:50:06;;;;;;;43.8;26.7;;;;;;;5.18;100;959.8147;;;;
2019/11/01 06:52:31;;;;;;;44.2;26.9;;;;;;;5.13;100;959.8007;;;;
2019/11/01 06:54:56;;;;;;;37.7;27.2;;;;;;;5.09;100;959.8517;;;;
2019/11/01 06:57:22;;;;;;;39.7;27.7;;;;;;;5.18;100;959.7615;;;;
2019/11/01 06:59:47;;;;;;;51.3;28.1;;;;;;;5.11;100;959.7933;;;;
2019/11/01 07:02:12;;;;;;;38.1;26.2;;;;;;;5.23;100;959.7632;;;;
2019/11/01 07:04:38;;;;;;;44;27.1;;;;;;;5.17;100;959.7747;;;;
2019/11/01 07:07:03;;;;;;;39.5;27.3;;;;;;;5.25;100;959.7126;;;;
2019/11/01 07:09:28;;;;;;;36.7;26.7;;;;;;;5.35;100;959.7057;;;;
2019/11/01 07:11:54;;;;;;;31.1;24.3;;;;;;;5.42;100;959.6716;;;;
2019/11/01 07:14:19;;;;;;;35.3;24.5;;;;;;;5.48;100;959.6415;;;;
2019/11/01 07:16:44;;;;;;;37.8;23.9;;;;;;;5.34;100;959.6248;;;;
2019/11/01 07:19:10;;;;;;;34;24.4;;;;;;;5.35;100;959.6426;;;;
2019/11/01 07:21:36;;;;;;;37.5;23.8;;;;;;;5.5;100;959.6421;;;;
2019/11/01 07:24:01;;;;;;;31.5;23.1;;;;;;;5.59;100;959.6431;;;;
2019/11/01 07:26:26;;;;;;;30.8;23.2;;;;;;;5.59;100;959.6403;;;;
2019/11/01 07:28:51;;;;;;;29.3;23.3;;;;;;;5.57;100;959.6524;;;;
2019/11/01 07:31:16;;;;;;;36.8;25.8;;;;;;;5.43;100;959.6519;;;;
2019/11/01 07:33:42;;;;;;;35.2;23.1;;;;;;;5.56;100;959.6395;;;;
2019/11/01 07:36:07;;;;;;;30.7;22.7;;;;;;;5.62;100;959.6581;;;;
2019/11/01 07:38:32;;;;;;;31.5;23.6;;;;;;;5.47;100;959.6096;;;;
2019/11/01 07:40:58;;;;;;;34;23.9;;;;;;;5.46;100;959.572;;;;
2019/11/01 07:43:23;;;;;;;40.3;26;;;;;;;5.39;100;959.5969;;;;
2019/11/01 07:45:49;;;;;;;29.8;23.8;;;;;;;5.5;100;959.5735;;;;
2019/11/01 07:48:14;;;;;;;35;23.3;;;;;;;5.58;100;959.4902;;;;
2019/11/01 07:50:39;;;;;;;30.4;24.3;;;;;;;5.6;100;959.4408;;;;
2019/11/01 07:53:04;;;;;;;36.9;23;;;;;;;5.54;100;959.433;;;;
2019/11/01 07:55:30;;;;;;;33.3;24.3;;;;;;;5.55;100;959.3735;;;;
2019/11/01 07:57:55;;;;;;;29.3;22.3;;;;;;;5.63;100;959.3467;;;;
2019/11/01 08:00:20;;;;;;;30.4;23.5;;;;;;;5.6;100;959.3132;;;;
2019/11/01 08:02:45;;;;;;;33.3;23.4;;;;;;;5.56;100;959.3406;;;;
2019/11/01 08:05:10;;;;;;;34.7;24.1;;;;;;;5.53;100;959.2569;;;;
2019/11/01 08:07:35;;;;;;;29.8;22.6;;;;;;;5.64;100;959.2209;;;;
2019/11/01 08:10:00;;;;;;;30.5;24;;;;;;;5.61;100;959.2245;;;;
2019/11/01 08:12:25;;;;;;;31.1;24.4;;;;;;;5.61;100;959.2012;;;;
2019/11/01 08:14:50;;;;;;;31.5;22.8;;;;;;;5.66;100;959.2104;;;;
2019/11/01 08:17:15;;;;;;;33.4;25.2;;;;;;;5.51;100;959.1361;;;;
2019/11/01 08:19:40;;;;;;;31.5;24.8;;;;;;;5.77;100;959.1738;;;;
2019/11/01 08:22:05;;;;;;;28.1;23.2;;;;;;;5.83;100;959.1108;;;;
2019/11/01 08:24:30;;;;;;;28.6;21.8;;;;;;;5.91;100;959.1135;;;;
2019/11/01 08:26:55;;;;;;;26.9;22.3;;;;;;;5.97;100;959.0787;;;;
2019/11/01 08:29:21;;;;;;;28.2;23.1;;;;;;;6.02;100;959.0401;;;;
2019/11/01 08:31:46;;;;;;;26.7;22.2;;;;;;;6.06;100;959.0745;;;;
2019/11/01 08:34:12;;;;;;;25.3;22;;;;;;;6.16;100;959.0525;;;;
2019/11/01 08:36:37;;;;;;;24;21;;;;;;;6.17;100;959.043;;;;
2019/11/01 08:39:03;;;;;;;24.7;22;;;;;;;6.17;100;958.9752;;;;
2019/11/01 08:41:27;;;;;;;26.9;22.5;;;;;;;6.07;100;958.9324;;;;
2019/11/01 08:43:52;;;;;;;23;20.5;;;;;;;6.34;100;958.945;;;;
2019/11/01 08:46:18;;;;;;;25;21.3;;;;;;;6.31;100;958.9055;;;;
2019/11/01 08:48:43;;;;;;;25.6;21.9;;;;;;;6.28;100;958.9227;;;;
2019/11/01 08:51:08;;;;;;;25.1;21.7;;;;;;;6.26;100;958.9288;;;;
2019/11/01 08:53:33;;;;;;;25.8;22.1;;;;;;;6.21;100;958.9108;;;;
2019/11/01 08:56:00;;;;;;;24.9;22.2;;;;;;;6.3;100;958.8702;;;;
2019/11/01 08:58:25;;;;;;;25.3;22.6;;;;;;;6.23;100;958.7991;;;;
2019/11/01 09:00:50;;;;;;;25.5;22;;;;;;;6.28;100;958.6805;;;;
2019/11/01 09:03:15;;;;;;;24.8;21.9;;;;;;;6.23;100;958.6931;;;;
2019/11/01 09:05:40;;;;;;;25.3;22.5;;;;;;;6.28;100;958.7452;;;;
2019/11/01 09:08:05;;;;;;;24.9;21.7;;;;;;;6.43;100;958.7145;;;;
2019/11/01 09:10:30;;;;;;;25.8;21.9;;;;;;;6.39;100;958.7355;;;;
2019/11/01 09:12:55;;;;;;;32.4;27.9;;;;;;;6.44;100;958.7294;;;;
2019/11/01 09:15:20;;;;;;;26.9;24;;;;;;;6.48;100;958.7653;;;;
2019/11/01 09:17:46;;;;;;;24.2;21.6;;;;;;;6.53;100;958.7581;;;;
2019/11/01 09:20:11;;;;;;;24.2;21.3;;;;;;;6.57;100;958.8152;;;;
2019/11/01 09:22:36;;;;;;;23.7;21.1;;;;;;;6.58;100;958.7349;;;;
2019/11/01 09:25:01;;;;;;;21.9;19.6;;;;;;;6.71;100;958.721;;;;
2019/11/01 09:27:26;;;;;;;21.6;19.3;;;;;;;6.74;100;958.7123;;;;
2019/11/01 09:29:52;;;;;;;22.2;19.4;;;;;;;6.75;100;958.6989;;;;
2019/11/01 09:32:18;;;;;;;20.5;18.3;;;;;;;6.81;100;958.6085;;;;
2019/11/01 09:34:43;;;;;;;21.1;18.8;;;;;;;6.85;100;958.5718;;;;
2019/11/01 09:37:08;;;;;;;26.6;23.2;;;;;;;6.64;100;958.5109;;;;
2019/11/01 09:39:34;;;;;;;27.7;23.7;;;;;;;6.78;100;958.5013;;;;
2019/11/01 09:41:59;;;;;;;32;27.2;;;;;;;6.94;100;958.5496;;;;
2019/11/01 09:44:25;;;;;;;26.5;23.6;;;;;;;6.92;100;958.5804;;;;
2019/11/01 09:46:50;;;;;;;24.9;22.2;;;;;;;6.9;100;958.5634;;;;
2019/11/01 09:49:15;;;;;;;22.1;19.8;;;;;;;7.06;100;958.5836;;;;
2019/11/01 09:51:41;;;;;;;23.2;20.8;;;;;;;7.06;100;958.5922;;;;
2019/11/01 09:54:06;;;;;;;22.3;20.1;;;;;;;7.1;100;958.6264;;;;
2019/11/01 09:56:31;;;;;;;22;19.7;;;;;;;7.11;100;958.5787;;;;
2019/11/01 09:58:56;;;;;;;22.3;19.9;;;;;;;7.19;100;958.6259;;;;
2019/11/01 10:01:21;;;;;;;21.3;19.1;;;;;;;7.19;100;958.5669;;;;
2019/11/01 10:03:46;;;;;;;22.2;19.9;;;;;;;7.29;100;958.5219;;;;
2019/11/01 10:06:12;;;;;;;21.3;19.1;;;;;;;7.38;100;958.4839;;;;
2019/11/01 10:08:38;;;;;;;21.2;19;;;;;;;7.48;100;958.4125;;;;
2019/11/01 10:11:02;;;;;;;22.1;19.7;;;;;;;7.63;99.67578;958.3127;;;;
2019/11/01 10:13:33;;;;;;;20.4;18.3;;;;;;;7.76;98.80371;958.2459;;;;
2019/11/01 10:18:54;;;;;;;21.1;18.9;;;;;;;7.66;99.14648;958.1428;;;;
2019/11/01 10:20:52;;;;;;;20.8;18.7;;;;;;;7.63;100;958.0739;;;;
2019/11/01 10:23:07;;;;;;;20.8;18.7;;;;;;;7.61;100;958.01;;;;
2019/11/01 10:25:33;;;;;;;20;17.9;;;;;;;7.76;99.52637;957.9792;;;;
2019/11/01 10:27:58;;;;;;;20.1;18.1;;;;;;;7.76;98.89746;957.9589;;;;
2019/11/01 10:30:23;;;;;;;22.2;19.9;;;;;;;7.65;99.67285;957.9656;;;;
2019/11/01 10:32:48;;;;;;;21.6;19.3;;;;;;;7.56;100;957.9695;;;;
2019/11/01 10:35:13;;;;;;;21.5;19.3;;;;;;;7.66;99.68359;957.9619;;;;
2019/11/01 10:37:38;;;;;;;21.2;19;;;;;;;7.6;100;957.9615;;;;
2019/11/01 10:40:03;;;;;;;21.8;19.6;;;;;;;7.64;100;957.9523;;;;
2019/11/01 10:42:28;;;;;;;22;19.6;;;;;;;7.63;100;957.8939;;;;
2019/11/01 10:44:53;;;;;;;20.8;18.7;;;;;;;7.77;100;957.8308;;;;
2019/11/01 10:47:18;;;;;;;20.7;18.6;;;;;;;7.84;100;957.7031;;;;
2019/11/01 10:49:43;;;;;;;20.5;18.4;;;;;;;7.92;99.10547;957.658;;;;
2019/11/01 10:52:09;;;;;;;19.9;17.8;;;;;;;8;99.92285;957.6626;;;;
2019/11/01 10:54:34;;;;;;;20.3;18.3;;;;;;;7.93;100;957.5303;;;;
2019/11/01 10:56:59;;;;;;;19.8;17.8;;;;;;;8.07;100;957.437;;;;
2019/11/01 10:59:24;;;;;;;20.6;18.5;;;;;;;8.22;99.73242;957.4253;;;;
2019/11/01 11:01:49;;;;;;;20.2;18.1;;;;;;;8.3;98.91602;957.4225;;;;
2019/11/01 11:04:14;;;;;;;20.8;18.7;;;;;;;8.27;99.67676;957.416;;;;
2019/11/01 11:06:39;;;;;;;19.3;17.4;;;;;;;8.3;97.99023;957.4436;;;;
2019/11/01 11:09:04;;;;;;;20.3;18.3;;;;;;;8.4;98.59668;957.4673;;;;
2019/11/01 11:11:29;;;;;;;20.4;18.4;;;;;;;8.4;98.33301;957.3699;;;;
2019/11/01 11:13:54;;;;;;;18.9;17;;;;;;;8.57;96.8623;957.2863;;;;
2019/11/01 11:16:19;;;;;;;19.5;17.4;;;;;;;8.54;97.19727;957.2206;;;;
2019/11/01 11:18:44;;;;;;;19.4;17.4;;;;;;;8.68;97.0791;957.2263;;;;
2019/11/01 11:21:09;;;;;;;19.3;17.3;;;;;;;8.71;95.86133;957.1726;;;;
2019/11/01 11:23:34;;;;;;;18.7;16.9;;;;;;;8.76;95.7334;957.1186;;;;
2019/11/01 11:26:00;;;;;;;18.1;16.4;;;;;;;8.79;96.00488;957.077;;;;
2019/11/01 11:28:25;;;;;;;18;16.2;;;;;;;8.94;95.51172;957.0221;;;;
2019/11/01 11:30:50;;;;;;;18.7;16.9;;;;;;;8.79;95.68164;957.0189;;;;
2019/11/01 11:33:15;;;;;;;18.5;16.6;;;;;;;8.88;95.73633;956.9745;;;;
2019/11/01 11:35:40;;;;;;;19.5;17.2;;;;;;;8.83;96.68945;956.9606;;;;
2019/11/01 11:38:05;;;;;;;20.3;18.2;;;;;;;8.93;97.82324;956.8879;;;;
2019/11/01 11:40:30;;;;;;;18.6;16.8;;;;;;;9.07;95.75684;956.8128;;;;
2019/11/01 11:42:56;;;;;;;18.5;16.7;;;;;;;9.14;95.47266;956.7231;;;;
2019/11/01 11:45:21;;;;;;;19;17.1;;;;;;;9.08;96.02148;956.6301;;;;
2019/11/01 11:47:46;;;;;;;18.6;16.8;;;;;;;9.16;96.25684;956.5432;;;;
2019/11/01 11:50:11;;;;;;;19.1;17.2;;;;;;;9.33;96.08887;956.5136;;;;
2019/11/01 11:52:37;;;;;;;18.1;16.4;;;;;;;9.48;95.23828;956.5773;;;;
2019/11/01 11:55:02;;;;;;;17.3;15.7;;;;;;;9.4;94.64844;956.5859;;;;
2019/11/01 11:57:27;;;;;;;18.3;16.5;;;;;;;9.44;94.77148;956.5613;;;;
2019/11/01 11:59:52;;;;;;;18.6;16.6;;;;;;;9.49;95.00098;956.5331;;;;
2019/11/01 12:02:17;;;;;;;18;16.3;;;;;;;9.56;94.78516;956.5269;;;;
2019/11/01 12:04:43;;;;;;;18.5;16.6;;;;;;;9.57;95.53418;956.4285;;;;
2019/11/01 12:07:08;;;;;;;18.5;16.6;;;;;;;9.75;96.1709;956.3861;;;;
2019/11/01 12:09:33;;;;;;;17.2;15.5;;;;;;;9.87;95.72754;956.3132;;;;
2019/11/01 12:11:58;;;;;;;18.3;16.3;;;;;;;9.96;95.83984;956.2894;;;;
2019/11/01 12:14:24;;;;;;;22.2;20;;;;;;;9.97;94.58887;956.241;;;;
2019/11/01 12:16:49;;;;;;;17.3;15.6;;;;;;;9.96;94.71289;956.1319;;;;
2019/11/01 12:19:14;;;;;;;16.8;15.1;;;;;;;10.02;94.09473;956.158;;;;
2019/11/01 12:21:40;;;;;;;17.4;15.7;;;;;;;10.06;93.26563;956.1072;;;;
2019/11/01 12:24:05;;;;;;;16.8;15;;;;;;;10.19;93.77539;956.0399;;;;
2019/11/01 12:26:30;;;;;;;16.2;14.7;;;;;;;10.23;93.57813;956.0496;;;;
2019/11/01 12:28:55;;;;;;;15.9;14.4;;;;;;;10.23;94.58789;956.0525;;;;
2019/11/01 12:31:20;;;;;;;14.6;13.1;;;;;;;10.34;94.08398;955.9951;;;;
2019/11/01 12:33:45;;;;;;;14.7;13.3;;;;;;;10.4;94.10938;955.9503;;;;
2019/11/01 12:36:10;;;;;;;13.6;12.3;;;;;;;10.48;93.28516;955.9392;;;;
2019/11/01 12:38:35;;;;;;;14.3;12.9;;;;;;;10.41;94.65039;955.8374;;;;
2019/11/01 12:41:01;;;;;;;12.6;11.4;;;;;;;10.38;93.8623;955.7881;;;;
2019/11/01 12:43:26;;;;;;;13;11.7;;;;;;;10.59;93.63086;955.7257;;;;
2019/11/01 12:45:51;;;;;;;12.8;11.7;;;;;;;10.6;93.3584;955.7233;;;;
2019/11/01 12:48:16;;;;;;;13.3;12;;;;;;;10.62;93.80859;955.6606;;;;
2019/11/01 12:50:41;;;;;;;12.8;11.5;;;;;;;10.39;93.75098;955.6033;;;;
2019/11/01 12:53:06;;;;;;;11.8;10.8;;;;;;;10.55;94.81738;955.5098;;;;
2019/11/01 12:55:31;;;;;;;11.8;10.7;;;;;;;10.63;94.07813;955.4442;;;;
2019/11/01 12:57:56;;;;;;;12.5;11.3;;;;;;;10.61;93.70508;955.3412;;;;
2019/11/01 13:00:21;;;;;;;11.9;10.8;;;;;;;10.61;94.56836;955.3208;;;;
2019/11/01 13:02:46;;;;;;;11.9;10.8;;;;;;;10.72;94.3623;955.2236;;;;
2019/11/01 13:05:12;;;;;;;11.5;10.4;;;;;;;10.75;93.87305;955.2459;;;;
2019/11/01 13:07:37;;;;;;;12.2;11;;;;;;;10.72;94.05078;955.2285;;;;
2019/11/01 13:10:02;;;;;;;10.7;9.7;;;;;;;10.8;93.89355;955.214;;;;
2019/11/01 13:12:27;;;;;;;11.2;10.1;;;;;;;10.77;93.78418;955.1337;;;;
2019/11/01 13:14:52;;;;;;;12.3;11.1;;;;;;;10.9;93.42188;955.0828;;;;
2019/11/01 13:17:17;;;;;;;17.3;15.5;;;;;;;10.93;93.60059;955.0652;;;;
2019/11/01 13:19:42;;;;;;;15.8;14.1;;;;;;;10.87;93.88672;955.0304;;;;
2019/11/01 13:22:07;;;;;;;14.1;12.7;;;;;;;10.8;94.30859;954.9047;;;;
2019/11/01 13:24:32;;;;;;;17.2;14.3;;;;;;;10.76;94.18555;954.84;;;;
2019/11/01 13:26:57;;;;;;;14.6;12.7;;;;;;;10.78;94.27246;954.7809;;;;
2019/11/01 13:29:23;;;;;;;11.8;10.7;;;;;;;10.83;94.93848;954.7342;;;;
2019/11/01 13:31:48;;;;;;;11.1;10;;;;;;;10.78;95.29688;954.7206;;;;
2019/11/01 13:34:13;;;;;;;11.7;10.4;;;;;;;10.82;94.64844;954.6605;;;;
2019/11/01 13:36:38;;;;;;;12.8;11.5;;;;;;;10.85;94.97852;954.6192;;;;
2019/11/01 13:39:03;;;;;;;12;10.3;;;;;;;10.78;95.51367;954.5739;;;;
2019/11/01 13:41:28;;;;;;;11.5;10.3;;;;;;;10.68;96;954.5338;;;;
2019/11/01 13:43:54;;;;;;;12.2;11;;;;;;;10.73;95.74512;954.5162;;;;
2019/11/01 13:46:19;;;;;;;11.7;10.6;;;;;;;10.68;96.20801;954.4467;;;;
2019/11/01 13:48:44;;;;;;;11.7;10.6;;;;;;;10.66;96.63867;954.4716;;;;
2019/11/01 13:51:10;;;;;;;11.5;10.5;;;;;;;10.63;96.77148;954.4469;;;;
2019/11/01 13:53:35;;;;;;;11.6;10.5;;;;;;;10.57;97.44727;954.4144;;;;
2019/11/01 13:56:00;;;;;;;11.4;10.3;;;;;;;10.67;96.91699;954.4381;;;;
2019/11/01 13:58:26;;;;;;;11.3;10.2;;;;;;;10.7;96.84277;954.4498;;;;
2019/11/01 14:00:51;;;;;;;11.3;10.2;;;;;;;10.58;97.30176;954.394;;;;
2019/11/01 14:03:16;;;;;;;12.2;11;;;;;;;10.56;97.39941;954.3884;;;;
2019/11/01 14:05:41;;;;;;;12.1;10.9;;;;;;;10.47;98.2998;954.3931;;;;
2019/11/01 14:08:06;;;;;;;11.7;10.6;;;;;;;10.52;98.29883;954.3544;;;;
2019/11/01 14:10:31;;;;;;;11;9.9;;;;;;;10.59;98.10742;954.3423;;;;
2019/11/01 14:12:56;;;;;;;10.6;9.6;;;;;;;10.6;98.05273;954.286;;;;
2019/11/01 14:15:22;;;;;;;11.4;10.4;;;;;;;10.69;97.69434;954.1916;;;;
2019/11/01 14:17:47;;;;;;;12.1;10.9;;;;;;;10.64;98.29297;954.1649;;;;
2019/11/01 14:20:12;;;;;;;12.8;11.6;;;;;;;10.62;98.23145;954.1055;;;;
2019/11/01 14:22:37;;;;;;;14.5;13;;;;;;;10.6;98.80078;954.0905;;;;
2019/11/01 14:25:02;;;;;;;14;12.6;;;;;;;10.52;98.98926;954.0056;;;;
2019/11/01 14:27:27;;;;;;;14.5;13;;;;;;;10.51;99.35742;953.9942;;;;
2019/11/01 14:29:53;;;;;;;14.2;12.8;;;;;;;10.46;99.92969;953.9163;;;;
2019/11/01 14:32:18;;;;;;;14.9;13.4;;;;;;;10.4;100;953.9295;;;;
2019/11/01 14:34:43;;;;;;;15.6;14.1;;;;;;;10.51;99.96484;953.8973;;;;
2019/11/01 14:37:09;;;;;;;15.9;14.4;;;;;;;10.36;100;953.9227;;;;
2019/11/01 14:39:34;;;;;;;17;15.2;;;;;;;10.29;100;953.9324;;;;
2019/11/01 14:41:59;;;;;;;16.5;14.9;;;;;;;10.28;100;953.9519;;;;
2019/11/01 14:44:25;;;;;;;15.9;14.4;;;;;;;10.39;100;953.9506;;;;
2019/11/01 14:46:50;;;;;;;16.2;14.6;;;;;;;10.36;100;953.9422;;;;
2019/11/01 14:49:15;;;;;;;16.4;14.7;;;;;;;10.31;100;953.9497;;;;
2019/11/01 14:51:40;;;;;;;15.9;14.4;;;;;;;10.27;100;953.9706;;;;
2019/11/01 14:54:05;;;;;;;15.1;13.7;;;;;;;10.31;100;953.8943;;;;
2019/11/01 14:56:30;;;;;;;16.2;14.7;;;;;;;10.28;100;953.8541;;;;
2019/11/01 14:58:56;;;;;;;16.1;14.6;;;;;;;10.35;100;953.8645;;;;
2019/11/01 15:01:21;;;;;;;15.6;14.1;;;;;;;10.31;100;953.7828;;;;
2019/11/01 15:03:46;;;;;;;16.8;15.2;;;;;;;10.24;100;953.8079;;;;
2019/11/01 15:06:12;;;;;;;16.4;14.8;;;;;;;10.25;100;953.7786;;;;
2019/11/01 15:08:37;;;;;;;17;15.3;;;;;;;10.24;100;953.7924;;;;
2019/11/01 15:13:27;;;;;;;17.6;15.5;;;;;;;10.26;100;953.6972;;;;
2019/11/01 15:15:53;;;;;;;16.5;14.9;;;;;;;10.24;100;953.6955;;;;
2019/11/01 15:18:18;;;;;;;17.1;15.4;;;;;;;10.29;100;953.5873;;;;
2019/11/01 15:20:43;;;;;;;16.2;14.5;;;;;;;10.41;100;953.5714;;;;
2019/11/01 15:23:08;;;;;;;16.1;14.4;;;;;;;10.36;100;953.4967;;;;
2019/11/01 15:25:33;;;;;;;15.5;14;;;;;;;10.32;100;953.4109;;;;
2019/11/01 15:27:58;;;;;;;16.2;14.6;;;;;;;10.32;100;953.3731;;;;
2019/11/01 15:30:23;;;;;;;16.8;15.2;;;;;;;10.39;100;953.3936;;;;
2019/11/01 15:32:49;;;;;;;17.5;15.6;;;;;;;10.45;100;953.4235;;;;
2019/11/01 15:35:14;;;;;;;17.4;15.5;;;;;;;10.31;100;953.4228;;;;
2019/11/01 15:37:39;;;;;;;17.1;15.5;;;;;;;10.21;100;953.4053;;;;
2019/11/01 15:40:04;;;;;;;17.7;15.9;;;;;;;10.14;100;953.3982;;;;
2019/11/01 15:42:29;;;;;;;16.6;15.1;;;;;;;10.17;100;953.3423;;;;
2019/11/01 15:44:54;;;;;;;17.6;15.9;;;;;;;10.13;100;953.2464;;;;
2019/11/01 15:47:19;;;;;;;17.7;16;;;;;;;10.22;100;953.2449;;;;
2019/11/01 15:49:44;;;;;;;17.4;15.6;;;;;;;10.13;100;953.2188;;;;
2019/11/01 15:52:09;;;;;;;18.7;16.8;;;;;;;10.05;100;953.2586;;;;
2019/11/01 15:54:34;;;;;;;16.9;15.2;;;;;;;10.14;100;953.31;;;;
2019/11/01 15:56:59;;;;;;;18.6;16.8;;;;;;;10.06;100;953.3386;;;;
2019/11/01 15:59:25;;;;;;;19;17.2;;;;;;;10.04;100;953.3594;;;;
2019/11/01 16:01:53;;;;;;;22.1;19.8;;;;;;;9.93;100;953.3533;;;;
2019/11/01 16:04:15;;;;;;;22.4;20.1;;;;;;;9.98;100;953.2839;;;;
2019/11/01 16:06:40;;;;;;;22.7;20.3;;;;;;;9.99;100;953.2831;;;;
2019/11/01 16:09:05;;;;;;;22.5;20.2;;;;;;;10.03;100;953.2455;;;;
2019/11/01 16:11:30;;;;;;;23;20.5;;;;;;;10.14;100;953.2073;;;;
2019/11/01 16:13:55;;;;;;;22.7;20.3;;;;;;;10.13;100;953.1024;;;;
2019/11/01 16:16:20;;;;;;;22.4;20.2;;;;;;;10.05;100;953.1099;;;;
2019/11/01 16:18:45;;;;;;;23.9;21.5;;;;;;;10.07;100;953.048;;;;
2019/11/01 16:21:10;;;;;;;21.8;19.6;;;;;;;10.17;100;953.0522;;;;
2019/11/01 16:23:35;;;;;;;20.2;18.1;;;;;;;10.07;100;953.0635;;;;
2019/11/01 16:26:01;;;;;;;19.4;17.5;;;;;;;10.09;100;953.076;;;;
2019/11/01 16:28:26;;;;;;;21.6;19.2;;;;;;;9.94;100;953.0199;;;;
2019/11/01 16:30:51;;;;;;;21.8;19.7;;;;;;;10.01;100;953.0474;;;;
2019/11/01 16:33:17;;;;;;;22.5;20.2;;;;;;;10.03;100;953.0126;;;;
2019/11/01 16:35:42;;;;;;;24.5;21.9;;;;;;;9.98;100;953.0048;;;;
2019/11/01 16:38:07;;;;;;;23.6;21.1;;;;;;;9.96;100;953.0471;;;;
2019/11/01 16:40:32;;;;;;;23.1;20.7;;;;;;;9.95;100;953.0744;;;;
2019/11/01 16:42:58;;;;;;;21.1;18.9;;;;;;;9.95;100;953.05;;;;
2019/11/01 16:45:23;;;;;;;21;18.8;;;;;;;9.96;100;953.0215;;;;